22:09
Airports
History
Links
Donate
Help keep this website running!
PayPal
Bitcoin
This page is community maintained. The information is intended for PC simulator navigation or reference.
Always use approved charts for navigation.
SBCO
Canoas
Canoas (SBCO)
Canoas, Rio Grande do Sul, Brazil (92130)
(C)
Lat/Lng:29° 56' 45.4" S / 51° 8' 39.72" W
-29.945945 / -51.144367
Elevation:26'ft / 8mMSL
ID / ICAO:SBCO
Runways:1
Longest:12-30
Asphalt 2,752m / 9,029ft
Controlled:Yes
METAR21:00 GMT 2017-10-16
Altimeter: 30.00
Visibility: 6.2 statute miles
Wind: 11 knots (from 120°)
Temp: 22°c / 72°f
Humidity: 73.3%

METAR: SBCO 162100Z 12011KT CAVOK 22/17 Q1016

(Powered by phpweather)
Airport Radio Frequencies
ATIS: 127.85
Ground: 121.7
Tower: 118.5, 122.8
Approach: 119, 120.1, 120.55, 128.9
Runway 12 / 30
Dimensions:2752 x 44.2m 9029' x 145'ft
Surface:Asphalt
Edge Lights:Low intensity
Runway 12 [A]Runway 30 [B]
Heading:109°TH 289°TH
Lat:
Lng:
29° 56' 30.49"S
51° 9' 28.14"W
29° 57' 0.31"S
51° 7' 51.3"W
ALS:MALSR
User Notes and Comments
29° 56' 45.4" S / 51° 8' 39.72" W
Distance To
Airport ID:
Nearby Airports
(C) Salgado Filho 3.7 NM
SBPA ( WX ) SSW 205°
4 Fazenda do Jacui 9.7 NM
SSJC WSW 254°
4 Belem Novo 16.9 NM
SSBN S 187°
(C) Novo Hamburgo 17.7 NM
SSNH NNE 12°
4 El Dorado 18.1 NM
SSMK WSW 240°
4 Astral 19.2 NM
SSGI WSW 245°
4 Aeroclube de Eldorado do Sul 19.3 NM
SIXE WSW 248°
VFR Chart
Flight Planning at SkyVector.com